createdAt,value
2022-11-24T00:01:08.970Z,94.40
2022-11-24T00:03:36.162Z,94.40
2022-11-24T00:06:10.800Z,94.40
2022-11-24T00:08:38.637Z,94.40
2022-11-24T00:11:08.333Z,94.40
2022-11-24T00:13:35.632Z,94.30
2022-11-24T00:16:11.010Z,94.30
2022-11-24T00:18:39.468Z,94.40
2022-11-24T00:21:06.971Z,94.40
2022-11-24T00:23:34.174Z,94.40
2022-11-24T00:26:12.207Z,94.30
2022-11-24T00:28:39.695Z,94.30
2022-11-24T00:31:17.222Z,94.40
2022-11-24T00:33:45.239Z,94.30
2022-11-24T00:36:11.968Z,94.30
2022-11-24T00:38:38.936Z,94.30
2022-11-24T00:41:06.615Z,94.20
2022-11-24T00:43:33.581Z,94.20
2022-11-24T00:46:00.390Z,94.30
2022-11-24T00:48:27.756Z,94.30
2022-11-24T00:51:24.769Z,94.30
2022-11-24T00:53:51.541Z,94.40
2022-11-24T00:56:18.545Z,94.50
2022-11-24T00:58:45.445Z,94.60
2022-11-24T01:01:15.256Z,94.60
2022-11-24T01:03:42.856Z,94.70
2022-11-24T01:06:15.837Z,94.80
2022-11-24T01:08:43.350Z,94.90
2022-11-24T01:11:19.073Z,94.90
2022-11-24T01:13:47.916Z,95.00
2022-11-24T01:16:17.245Z,95.00
2022-11-24T01:18:44.486Z,95.00
2022-11-24T01:21:11.231Z,95.00
2022-11-24T01:23:38.226Z,95.10
2022-11-24T01:26:09.838Z,95.10
2022-11-24T01:28:40.557Z,95.10
2022-11-24T01:31:10.297Z,95.10
2022-11-24T01:33:37.944Z,95.20
2022-11-24T01:36:05.466Z,95.20
2022-11-24T01:38:32.801Z,95.30
2022-11-24T01:41:06.025Z,95.20
2022-11-24T01:43:34.937Z,95.20
2022-11-24T01:46:24.034Z,95.20
2022-11-24T01:49:11.684Z,95.30
2022-11-24T01:52:06.857Z,95.30
2022-11-24T01:54:38.003Z,95.30
2022-11-24T01:57:22.839Z,95.40
2022-11-24T01:59:54.958Z,95.40
2022-11-24T02:02:22.542Z,95.60
2022-11-24T02:04:50.635Z,95.60
2022-11-24T02:07:18.435Z,95.60
2022-11-24T02:10:02.319Z,95.60
2022-11-24T02:12:29.753Z,95.60
2022-11-24T02:14:58.190Z,95.60
2022-11-24T02:17:25.054Z,95.60
2022-11-24T02:19:58.006Z,95.50
2022-11-24T02:22:30.706Z,95.50
2022-11-24T02:25:25.643Z,95.40
2022-11-24T02:27:54.478Z,95.40
2022-11-24T02:30:21.569Z,95.40
2022-11-24T02:32:48.382Z,95.50
2022-11-24T02:35:15.179Z,95.50
2022-11-24T02:37:41.935Z,95.70
2022-11-24T02:40:09.386Z,95.70
2022-11-24T02:42:44.336Z,95.70
2022-11-24T02:45:12.496Z,95.60
2022-11-24T02:47:39.223Z,95.50
2022-11-24T02:50:06.473Z,95.60
2022-11-24T02:52:33.277Z,95.60
2022-11-24T02:55:00.206Z,95.60
2022-11-24T02:57:27.325Z,95.60
2022-11-24T02:59:54.108Z,95.60
2022-11-24T03:02:21.112Z,95.70
2022-11-24T03:04:47.986Z,95.80
2022-11-24T03:07:14.875Z,95.70
2022-11-24T03:09:41.683Z,95.90
2022-11-24T03:12:08.534Z,95.90
2022-11-24T03:14:35.653Z,96.00
2022-11-24T03:17:04.144Z,96.00
2022-11-24T03:19:31.018Z,96.00
2022-11-24T03:21:57.784Z,96.00
2022-11-24T03:24:24.531Z,96.00
2022-11-24T03:26:51.385Z,96.00
2022-11-24T03:29:18.203Z,96.00
2022-11-24T03:31:45.252Z,96.00
2022-11-24T03:34:13.913Z,96.00
2022-11-24T03:36:40.772Z,96.00
2022-11-24T03:39:08.179Z,96.00
2022-11-24T03:41:34.933Z,95.90
2022-11-24T03:44:01.742Z,95.90
2022-11-24T03:46:28.730Z,95.80
2022-11-24T03:48:55.473Z,95.70
2022-11-24T03:51:23.504Z,95.70
2022-11-24T03:53:50.346Z,95.70
2022-11-24T03:56:17.139Z,95.80
2022-11-24T03:58:43.896Z,95.80
2022-11-24T04:01:10.711Z,95.80
2022-11-24T04:03:37.435Z,95.80
2022-11-24T04:06:04.189Z,95.80
2022-11-24T04:08:30.929Z,95.80
2022-11-24T04:10:57.749Z,95.80
2022-11-24T04:13:25.778Z,95.80
2022-11-24T04:15:54.329Z,95.90
2022-11-24T04:18:21.436Z,95.90
2022-11-24T04:20:52.290Z,95.90
2022-11-24T04:23:19.577Z,95.90
2022-11-24T04:25:46.437Z,95.90
2022-11-24T04:28:13.192Z,96.00
2022-11-24T04:30:44.406Z,95.80
2022-11-24T04:33:11.537Z,95.80
2022-11-24T04:35:38.262Z,95.80
2022-11-24T04:38:05.017Z,95.80
2022-11-24T04:40:31.858Z,96.00
2022-11-24T04:42:58.573Z,96.00
2022-11-24T04:45:25.383Z,96.00
2022-11-24T04:47:52.191Z,96.00
2022-11-24T04:50:19.016Z,96.00
2022-11-24T04:52:45.903Z,96.00
2022-11-24T04:55:13.018Z,95.90
2022-11-24T04:57:39.788Z,95.90
2022-11-24T05:00:07.450Z,95.90
2022-11-24T05:02:34.397Z,96.00
2022-11-24T05:05:01.230Z,96.00
2022-11-24T05:07:28.289Z,96.00
2022-11-24T05:10:13.954Z,96.00
2022-11-24T05:12:40.691Z,96.10
2022-11-24T05:15:08.496Z,96.10
2022-11-24T05:17:37.590Z,96.10
2022-11-24T05:20:07.066Z,96.10
2022-11-24T05:22:34.300Z,96.10
2022-11-24T05:25:01.698Z,96.20
2022-11-24T05:27:29.252Z,96.20
2022-11-24T05:29:56.297Z,96.20
2022-11-24T05:32:23.621Z,96.20
2022-11-24T05:34:50.549Z,96.20
2022-11-24T05:37:17.769Z,96.20
2022-11-24T05:39:44.522Z,96.20
2022-11-24T05:42:30.168Z,96.20
2022-11-24T05:44:57.506Z,96.20
2022-11-24T05:47:24.424Z,96.20
2022-11-24T05:49:51.966Z,96.20
2022-11-24T05:52:18.823Z,96.10
2022-11-24T05:54:45.616Z,96.20
2022-11-24T05:57:13.130Z,96.20
2022-11-24T05:59:39.977Z,96.20
2022-11-24T06:02:06.877Z,96.00
2022-11-24T06:04:33.961Z,96.10
2022-11-24T06:07:00.970Z,96.00
2022-11-24T06:09:27.729Z,96.00
2022-11-24T06:11:54.759Z,96.10
2022-11-24T06:14:21.888Z,96.00
2022-11-24T06:16:48.686Z,96.00
2022-11-24T06:19:15.553Z,95.90
2022-11-24T06:21:42.363Z,95.80
2022-11-24T06:24:09.141Z,95.90
2022-11-24T06:26:35.952Z,95.70
2022-11-24T06:29:02.957Z,95.60
2022-11-24T06:31:29.806Z,95.60
2022-11-24T06:33:56.627Z,95.50
2022-11-24T06:36:23.472Z,95.50
2022-11-24T06:38:50.273Z,95.40
2022-11-24T06:41:18.190Z,95.50
2022-11-24T06:43:45.736Z,95.40
2022-11-24T06:46:13.162Z,95.50
2022-11-24T06:48:40.089Z,95.60
2022-11-24T06:51:10.531Z,95.70
2022-11-24T06:53:38.493Z,95.80
2022-11-24T06:56:12.172Z,95.80
2022-11-24T06:58:48.218Z,95.80
2022-11-24T07:01:20.187Z,95.70
2022-11-24T07:03:48.662Z,95.80
2022-11-24T07:06:16.287Z,95.80
2022-11-24T07:08:43.526Z,95.80
2022-11-24T07:11:15.504Z,95.60
2022-11-24T07:13:44.959Z,95.30
2022-11-24T07:16:21.023Z,95.00
2022-11-24T07:18:51.133Z,94.90
2022-11-24T07:21:19.538Z,94.70
2022-11-24T07:23:50.687Z,94.60
2022-11-24T07:26:18.138Z,94.30
2022-11-24T07:28:45.432Z,94.10
2022-11-24T07:31:14.907Z,94.00
2022-11-24T07:33:41.899Z,94.10
2022-11-24T07:36:09.579Z,94.00
2022-11-24T07:38:36.317Z,93.90
2022-11-24T07:41:08.295Z,93.80
2022-11-24T07:43:36.308Z,93.20
2022-11-24T07:46:04.539Z,93.20
2022-11-24T07:48:32.095Z,93.00
2022-11-24T07:51:03.191Z,93.20
2022-11-24T07:53:31.357Z,92.90
2022-11-24T07:56:00.738Z,92.80
2022-11-24T07:58:32.582Z,93.00
2022-11-24T08:01:00.424Z,92.90
2022-11-24T08:03:27.545Z,92.90
2022-11-24T08:08:46.470Z,92.40
2022-11-24T08:11:16.278Z,92.60
2022-11-24T08:13:43.630Z,92.80
2022-11-24T08:16:13.572Z,92.60
2022-11-24T08:18:40.892Z,92.50
2022-11-24T08:21:11.920Z,92.60
2022-11-24T08:23:38.890Z,92.50
2022-11-24T08:26:08.860Z,92.30
2022-11-24T08:28:36.635Z,92.00
2022-11-24T08:31:08.822Z,92.20
2022-11-24T08:33:36.148Z,91.90
2022-11-24T08:36:07.572Z,91.70
2022-11-24T08:38:34.423Z,91.50
2022-11-24T08:41:06.622Z,91.80
2022-11-24T08:43:33.575Z,91.40
2022-11-24T08:46:02.587Z,91.70
2022-11-24T08:48:30.018Z,91.50
2022-11-24T08:50:58.063Z,91.40
2022-11-24T08:53:25.392Z,91.90
2022-11-24T08:55:52.297Z,91.80
2022-11-24T08:58:19.114Z,92.00
2022-11-24T09:00:45.874Z,91.60
2022-11-24T09:03:12.656Z,89.90
2022-11-24T09:05:54.718Z,90.20
2022-11-24T09:08:21.475Z,90.00
2022-11-24T09:10:48.391Z,90.40
2022-11-24T09:13:15.110Z,89.90
2022-11-24T09:15:41.887Z,90.00
2022-11-24T09:18:08.653Z,90.30
2022-11-24T09:20:35.411Z,90.60
2022-11-24T09:23:02.379Z,90.80
2022-11-24T09:25:29.368Z,90.80
2022-11-24T09:27:57.148Z,90.70
2022-11-24T09:30:26.282Z,90.00
2022-11-24T09:32:56.215Z,90.00
2022-11-24T09:35:23.288Z,89.50
2022-11-24T09:37:51.171Z,90.30
2022-11-24T09:40:21.035Z,89.90
2022-11-24T09:43:07.500Z,87.70
2022-11-24T09:46:08.584Z,87.00
2022-11-24T09:48:41.354Z,87.90
2022-11-24T09:51:14.057Z,87.50
2022-11-24T09:53:46.397Z,88.60
2022-11-24T09:56:22.943Z,87.10
2022-11-24T09:58:58.685Z,87.20
2022-11-24T10:01:28.501Z,86.80
2022-11-24T10:04:12.504Z,85.70
2022-11-24T10:06:47.786Z,87.20
2022-11-24T10:09:56.697Z,86.10
2022-11-24T10:12:40.576Z,87.40
2022-11-24T10:16:08.366Z,88.10
2022-11-24T10:18:56.764Z,87.10
2022-11-24T10:22:04.480Z,88.30
2022-11-24T10:25:04.333Z,88.10
2022-11-24T10:27:46.592Z,87.90
2022-11-24T10:30:25.533Z,87.60
2022-11-24T10:33:19.107Z,87.00
2022-11-24T10:35:52.343Z,87.50
2022-11-24T10:38:54.134Z,86.50
2022-11-24T10:41:37.662Z,86.50
2022-11-24T10:44:04.658Z,87.00
2022-11-24T10:46:39.188Z,86.50
2022-11-24T10:49:06.710Z,87.10
2022-11-24T10:51:51.351Z,87.70
2022-11-24T10:54:21.765Z,87.90
2022-11-24T10:56:52.787Z,88.00
2022-11-24T10:59:31.300Z,88.40
2022-11-24T11:02:00.631Z,88.40
2022-11-24T11:04:29.000Z,88.70
2022-11-24T11:07:16.848Z,88.10
2022-11-24T11:09:44.257Z,88.40
2022-11-24T11:12:45.744Z,87.60
2022-11-24T11:15:24.230Z,88.20
2022-11-24T11:17:54.433Z,88.00
2022-11-24T11:20:31.310Z,88.30
2022-11-24T11:23:00.953Z,88.10
2022-11-24T11:25:33.895Z,88.20
2022-11-24T11:28:26.519Z,89.30
2022-11-24T11:31:22.416Z,89.00
2022-11-24T11:34:03.667Z,88.30
2022-11-24T11:36:33.167Z,88.10
2022-11-24T11:39:00.593Z,87.20
2022-11-24T11:41:36.984Z,88.20
2022-11-24T11:44:34.056Z,88.50
2022-11-24T11:47:09.192Z,88.60
2022-11-24T11:49:38.404Z,89.10
2022-11-24T11:52:31.824Z,89.00
2022-11-24T11:55:35.027Z,89.20
2022-11-24T11:58:41.393Z,89.20
2022-11-24T12:01:41.456Z,89.10
2022-11-24T12:04:26.696Z,88.40
2022-11-24T12:07:18.550Z,87.90
2022-11-24T12:09:57.283Z,88.00
2022-11-24T12:12:45.640Z,88.40
2022-11-24T12:15:17.467Z,87.40
2022-11-24T12:17:54.704Z,87.70
2022-11-24T12:20:50.055Z,87.80
2022-11-24T12:23:16.819Z,87.60
2022-11-24T12:25:57.541Z,88.40
2022-11-24T12:28:43.603Z,87.40
2022-11-24T12:31:51.608Z,87.10
2022-11-24T12:34:27.916Z,86.90
2022-11-24T12:37:03.646Z,87.30
2022-11-24T12:40:00.914Z,88.20
2022-11-24T12:42:54.824Z,87.50
2022-11-24T12:45:34.147Z,88.30
2022-11-24T12:48:12.933Z,88.90
2022-11-24T12:50:41.874Z,89.00
2022-11-24T12:53:20.485Z,89.00
2022-11-24T12:55:47.865Z,89.90
2022-11-24T12:58:20.070Z,89.40
2022-11-24T13:01:16.167Z,89.70
2022-11-24T13:03:52.379Z,90.00
2022-11-24T13:06:28.305Z,90.00
2022-11-24T13:08:55.512Z,90.70
2022-11-24T13:11:22.197Z,90.80
2022-11-24T13:14:13.669Z,91.10
2022-11-24T13:19:48.310Z,91.80
2022-11-24T13:22:33.069Z,92.30
2022-11-24T13:25:22.249Z,92.20
2022-11-24T13:27:53.026Z,92.50
2022-11-24T13:30:34.928Z,92.50
2022-11-24T13:33:16.754Z,92.60
2022-11-24T13:36:09.673Z,92.70
2022-11-24T13:38:45.576Z,92.80
2022-11-24T13:41:37.020Z,92.80
2022-11-24T13:44:16.020Z,92.90
2022-11-24T13:47:01.776Z,92.90
2022-11-24T13:49:39.056Z,92.90
2022-11-24T13:52:24.323Z,92.90
2022-11-24T13:54:52.721Z,92.80
2022-11-24T13:57:37.694Z,92.80
2022-11-24T14:00:05.482Z,92.70
2022-11-24T14:02:34.585Z,92.60
2022-11-24T14:05:01.532Z,92.60
2022-11-24T14:07:30.410Z,92.40
2022-11-24T14:09:58.129Z,92.40
2022-11-24T14:12:26.718Z,92.10
2022-11-24T14:15:14.233Z,92.10
2022-11-24T14:17:41.112Z,91.70
2022-11-24T14:20:22.779Z,91.80
2022-11-24T14:22:50.280Z,91.70
2022-11-24T14:25:30.956Z,91.60
2022-11-24T14:27:59.172Z,92.00
2022-11-24T14:30:26.507Z,91.70
2022-11-24T14:33:03.855Z,91.70
2022-11-24T14:35:32.996Z,91.90
2022-11-24T14:38:05.487Z,92.00
2022-11-24T14:40:51.573Z,92.00
2022-11-24T14:43:30.204Z,92.10
2022-11-24T14:46:09.890Z,92.20
2022-11-24T14:48:46.983Z,92.20
2022-11-24T14:51:30.460Z,92.10
2022-11-24T14:54:04.489Z,92.20
2022-11-24T14:56:36.694Z,92.40
2022-11-24T14:59:04.950Z,91.60
2022-11-24T15:01:34.622Z,91.90
2022-11-24T15:04:54.439Z,91.80
2022-11-24T15:07:12.088Z,91.50
2022-11-24T15:09:47.749Z,91.70
2022-11-24T15:12:38.558Z,91.60
2022-11-24T15:15:14.507Z,91.70
2022-11-24T15:17:53.062Z,91.60
2022-11-24T15:20:28.367Z,91.60
2022-11-24T15:23:23.218Z,91.60
2022-11-24T15:25:57.576Z,91.60
2022-11-24T15:28:27.745Z,91.50
2022-11-24T15:31:10.451Z,91.60
2022-11-24T15:33:37.730Z,91.30
2022-11-24T15:36:04.771Z,91.50
2022-11-24T15:38:31.809Z,91.50
2022-11-24T15:41:00.710Z,91.50
2022-11-24T15:43:31.468Z,91.70
2022-11-24T15:45:59.436Z,91.80
2022-11-24T15:48:27.005Z,91.90
2022-11-24T15:50:55.940Z,91.90
2022-11-24T15:53:34.483Z,91.90
2022-11-24T15:56:03.871Z,92.00
2022-11-24T15:58:30.695Z,91.90
2022-11-24T16:00:58.783Z,92.20
2022-11-24T16:06:22.034Z,92.30
2022-11-24T16:08:51.416Z,92.30
2022-11-24T16:11:18.234Z,92.30
2022-11-24T16:13:51.545Z,92.30
2022-11-24T16:16:19.942Z,92.40
2022-11-24T16:18:46.759Z,92.30
2022-11-24T16:21:13.526Z,92.40
2022-11-24T16:23:40.404Z,92.40
2022-11-24T16:26:07.603Z,92.50
2022-11-24T16:28:34.616Z,92.50
2022-11-24T16:31:01.583Z,92.40
2022-11-24T16:33:29.861Z,92.30
2022-11-24T16:35:56.800Z,92.20
2022-11-24T16:38:23.836Z,92.30
2022-11-24T16:41:22.920Z,92.10
2022-11-24T16:43:50.399Z,92.00
2022-11-24T16:46:22.827Z,91.90
2022-11-24T16:48:51.733Z,91.70
2022-11-24T16:51:20.920Z,91.70
2022-11-24T16:53:48.649Z,91.70
2022-11-24T16:56:16.458Z,91.70
2022-11-24T16:58:43.372Z,91.80
2022-11-24T17:01:12.635Z,91.90
2022-11-24T17:03:41.089Z,91.90
2022-11-24T17:06:11.178Z,92.00
2022-11-24T17:08:39.532Z,92.00
2022-11-24T17:11:17.548Z,92.00
2022-11-24T17:13:45.844Z,91.80
2022-11-24T17:16:18.890Z,91.90
2022-11-24T17:18:46.184Z,92.00
2022-11-24T17:21:21.313Z,91.90
2022-11-24T17:23:52.707Z,91.90
2022-11-24T17:26:19.437Z,91.90
2022-11-24T17:28:46.363Z,91.90
2022-11-24T17:31:22.272Z,91.70
2022-11-24T17:33:50.064Z,91.70
2022-11-24T17:36:17.179Z,91.60
2022-11-24T17:38:43.957Z,91.60
2022-11-24T17:41:11.313Z,91.40
2022-11-24T17:43:38.294Z,91.60
2022-11-24T17:46:05.719Z,91.60
2022-11-24T17:48:33.104Z,91.60
2022-11-24T17:51:09.476Z,91.70
2022-11-24T17:53:37.302Z,91.70
2022-11-24T17:56:04.222Z,91.70
2022-11-24T17:58:32.607Z,91.70
2022-11-24T18:00:59.719Z,91.80
2022-11-24T18:03:31.575Z,91.90
2022-11-24T18:06:08.479Z,91.70
2022-11-24T18:08:36.456Z,91.80
2022-11-24T18:11:08.727Z,91.70
2022-11-24T18:13:55.833Z,91.60
2022-11-24T18:16:24.133Z,91.80
2022-11-24T18:19:07.292Z,91.70
2022-11-24T18:21:35.020Z,91.60
2022-11-24T18:24:02.068Z,91.60
2022-11-24T18:26:28.900Z,91.40
2022-11-24T18:28:55.716Z,91.40
2022-11-24T18:31:22.532Z,91.10
2022-11-24T18:33:49.603Z,91.10
2022-11-24T18:36:18.712Z,91.00
2022-11-24T18:38:45.648Z,91.00
2022-11-24T18:41:14.715Z,91.00
2022-11-24T18:43:41.701Z,91.10
2022-11-24T18:46:16.962Z,90.90
2022-11-24T18:48:44.878Z,91.10
2022-11-24T18:51:14.550Z,91.10
2022-11-24T18:53:42.974Z,91.30
2022-11-24T18:56:17.232Z,91.60
2022-11-24T18:58:45.112Z,91.70
2022-11-24T19:01:17.512Z,91.30
2022-11-24T19:03:49.069Z,91.20
2022-11-24T19:06:28.555Z,91.20
2022-11-24T19:08:55.448Z,91.10
2022-11-24T19:11:25.339Z,91.20
2022-11-24T19:13:52.365Z,91.10
2022-11-24T19:16:20.632Z,91.20
2022-11-24T19:18:53.734Z,91.20
2022-11-24T19:21:22.352Z,91.30
2022-11-24T19:23:49.988Z,91.60
2022-11-24T19:26:17.977Z,91.80
2022-11-24T19:28:45.121Z,92.10
2022-11-24T19:31:14.411Z,92.50
2022-11-24T19:33:42.525Z,92.80
2022-11-24T19:36:19.993Z,92.90
2022-11-24T19:38:55.081Z,93.00
2022-11-24T19:41:25.018Z,93.10
2022-11-24T19:43:55.101Z,93.20
2022-11-24T19:46:22.968Z,93.40
2022-11-24T19:48:51.048Z,93.50
2022-11-24T19:51:20.393Z,93.60
2022-11-24T19:53:47.619Z,93.70
2022-11-24T19:56:19.667Z,93.90
2022-11-24T19:58:47.287Z,94.00
2022-11-24T20:01:16.831Z,94.00
2022-11-24T20:03:44.680Z,94.00
2022-11-24T20:06:13.353Z,94.10
2022-11-24T20:08:41.157Z,94.30
2022-11-24T20:11:10.942Z,94.20
2022-11-24T20:13:39.505Z,94.30
2022-11-24T20:16:15.361Z,94.20
2022-11-24T20:18:45.279Z,94.20
2022-11-24T20:21:18.980Z,94.30
2022-11-24T20:23:53.413Z,94.30
2022-11-24T20:26:22.934Z,94.40
2022-11-24T20:28:51.235Z,94.40
2022-11-24T20:31:20.526Z,94.40
2022-11-24T20:33:48.004Z,94.40
2022-11-24T20:36:17.225Z,94.50
2022-11-24T20:38:45.380Z,94.40
2022-11-24T20:41:17.374Z,94.50
2022-11-24T20:43:45.449Z,94.40
2022-11-24T20:46:24.488Z,94.40
2022-11-24T20:48:51.694Z,94.40
2022-11-24T20:51:21.611Z,94.30
2022-11-24T20:53:53.529Z,94.30
2022-11-24T20:56:23.177Z,94.40
2022-11-24T20:58:50.445Z,94.40
2022-11-24T21:01:26.715Z,94.60
2022-11-24T21:03:59.042Z,94.70
2022-11-24T21:06:27.896Z,94.70
2022-11-24T21:09:00.457Z,94.70
2022-11-24T21:11:30.588Z,94.80
2022-11-24T21:13:57.560Z,95.00
2022-11-24T21:16:29.119Z,95.00
2022-11-24T21:19:01.248Z,95.10
2022-11-24T21:21:34.477Z,95.10
2022-11-24T21:24:06.804Z,95.10
2022-11-24T21:26:38.065Z,95.10
2022-11-24T21:29:05.623Z,95.20
2022-11-24T21:31:36.672Z,95.20
2022-11-24T21:34:05.043Z,95.20
2022-11-24T21:36:35.539Z,95.30
2022-11-24T21:39:03.888Z,95.00
2022-11-24T21:41:33.079Z,95.10
2022-11-24T21:43:59.937Z,95.20
2022-11-24T21:46:37.756Z,95.20
2022-11-24T21:49:07.565Z,95.10
2022-11-24T21:51:34.391Z,95.30
2022-11-24T21:54:01.195Z,95.30
2022-11-24T21:56:27.974Z,95.30
2022-11-24T21:58:57.351Z,95.30
2022-11-24T22:01:27.329Z,95.40
2022-11-24T22:03:54.661Z,95.50
2022-11-24T22:06:21.817Z,95.50
2022-11-24T22:08:50.155Z,95.50
2022-11-24T22:11:19.953Z,95.50
2022-11-24T22:13:47.215Z,95.50
2022-11-24T22:16:16.891Z,95.50
2022-11-24T22:18:45.301Z,95.60
2022-11-24T22:21:14.881Z,95.60
2022-11-24T22:23:42.098Z,95.70
2022-11-24T22:26:13.343Z,95.80
2022-11-24T22:28:40.461Z,95.80
2022-11-24T22:31:10.445Z,95.70
2022-11-24T22:33:37.234Z,95.70
2022-11-24T22:36:04.616Z,95.70
2022-11-24T22:38:32.388Z,95.70
2022-11-24T22:41:11.500Z,95.60
2022-11-24T22:43:39.698Z,95.60
2022-11-24T22:46:11.405Z,95.70
2022-11-24T22:48:39.203Z,95.60
2022-11-24T22:51:07.280Z,95.50
2022-11-24T22:53:34.310Z,95.50
2022-11-24T22:56:02.875Z,95.50
2022-11-24T22:58:30.927Z,95.60
2022-11-24T23:01:20.331Z,95.50
2022-11-24T23:03:48.844Z,95.50
2022-11-24T23:06:21.397Z,95.20
2022-11-24T23:08:49.340Z,95.20
2022-11-24T23:11:27.389Z,95.50
2022-11-24T23:14:00.460Z,95.60
2022-11-24T23:16:28.987Z,95.40
2022-11-24T23:18:56.719Z,95.60
2022-11-24T23:21:26.989Z,95.50
2022-11-24T23:23:54.857Z,95.50
2022-11-24T23:26:28.043Z,95.50
2022-11-24T23:29:01.550Z,95.40
2022-11-24T23:31:29.170Z,95.50
2022-11-24T23:34:01.139Z,95.60
2022-11-24T23:36:29.317Z,95.80
2022-11-24T23:39:00.774Z,95.80
2022-11-24T23:41:30.054Z,95.50
2022-11-24T23:43:57.705Z,95.40
2022-11-24T23:46:26.823Z,95.60
2022-11-24T23:48:55.173Z,95.40
2022-11-24T23:51:27.269Z,94.30
2022-11-24T23:53:55.235Z,94.60
2022-11-24T23:56:25.558Z,94.50
2022-11-24T23:58:52.885Z,94.70
